Ranchito, Texas
Current Conditions -  °F | °C
As of 1:52 PM on Thursday 23 Oct 2014 (Local Time) from KHRL Reporting Station
Scattered Clouds Scattered Clouds  
Wind Chill: 84°   Ceiling: Unl
Heat Index: 86°   Visibility: 10mi
Dew Point: 66°   Wind: 13mph
Humidity: 55%   Direction: 360°N
Pressure: 30.04"   Gusts: 16mph
Location:  26.1784°N, 97.6678°W
Report Text: KHRL 231852Z 36011G14KT 10SM SCT045 29/19 A3004 RMK AO2 SLP172 T02890189
Loading
Personal Weather Stations






























Interactive Weather Map
Tropical Storm Tracking
New forecast layout! Learn more

10-Day Weather Forecast

Advertisements
Track Severe Weather on mobile